Time;durP1;ratioP1;P1;durP2;ratioP2;P2;SDS_P1;SDS_P2;PMS_P1;PMS_P2;Temp;Humidity;BMP_temperature;BMP_pressure;BME280_temperature;BME280_humidity;BME280_pressure;Samples;Min_cycle;Max_cycle;Signal;HPM_P1;HPM_P2
2022/11/03 00:02:10;;;;;;;;;;;;;;;;;;4978914;28;2785;-70
2022/11/03 00:04:35;;;;;;;;;;;;;;;;;;4982726;28;5067;-71
2022/11/03 00:07:01;;;;;;;;;;;;;;;;;;4971177;28;4831;-70
2022/11/03 00:09:26;;;;;;;;;;;;;;;;;;4953299;28;4700;-60
2022/11/03 00:11:52;;;;;;;;;;;;;;;;;;4979788;28;5193;-70
2022/11/03 00:14:17;;;;;;;;;;;;;;;;;;4978982;28;1609;-69
2022/11/03 00:16:43;;;;;;;;;;;;;;;;;;4986432;28;4496;-69
2022/11/03 00:19:40;;;;;;;;;;;;;;;;;;4975441;28;4744;-69
2022/11/03 00:22:06;;;;;;;;;;;;;;;;;;4980772;28;5233;-68
2022/11/03 00:24:35;;;;;;;;;;;;;;;;;;4965465;28;5131;-70
2022/11/03 00:27:01;;;;;;;;;;;;;;;;;;4993375;28;5193;-63
2022/11/03 00:29:26;;;;;;;;;;;;;;;;;;4998568;28;5033;-70
2022/11/03 00:31:52;;;;;;;;;;;;;;;;;;4975337;28;1290;-69
2022/11/03 00:34:17;;;;;;;;;;;;;;;;;;4975438;28;5159;-70
2022/11/03 00:37:00;;;;;;;;;;;;;;;;;;4990666;28;5977;-68
2022/11/03 00:39:26;;;;;;;;;;;;;;;;;;4993700;28;5104;-69
2022/11/03 00:42:00;;;;;;;;;;;;;;;;;;4982814;28;4486;-69
2022/11/03 00:44:26;;;;;;;;;;;;;;;;;;4974690;28;5072;-70
2022/11/03 00:50:00;;;;;;;;;;;;;;;;;;4972802;28;4624;-69
2022/11/03 00:52:25;;;;;;;;;;;;;;;;;;4981693;28;4460;-69
2022/11/03 00:54:50;;;;;;;;;;;;;;;;;;4986109;28;5200;-69
2022/11/03 00:57:16;;;;;;;;;;;;;;;;;;4973566;28;5041;-69
2022/11/03 00:59:57;;;;;;;;;;;;;;;;;;4975425;28;5120;-69
2022/11/03 01:02:26;;;;;;;;;;;;;;;;;;4978277;28;4695;-69
2022/11/03 01:07:36;;;;;;;;;;;;;;;;;;4958905;28;4427;-62
2022/11/03 01:10:01;;;;;;;;;;;;;;;;;;4973842;28;5011;-65
2022/11/03 01:12:26;;;;;;;;;;;;;;;;;;4979642;28;5046;-69
2022/11/03 01:15:02;;;;;;;;;;;;;;;;;;4973144;28;4889;-69
2022/11/03 01:17:27;;;;;;;;;;;;;;;;;;5003562;28;5006;-69
2022/11/03 01:19:52;;;;;;;;;;;;;;;;;;4980618;28;4529;-68
2022/11/03 01:22:35;;;;;;;;;;;;;;;;;;4990751;28;5115;-70
2022/11/03 01:25:00;;;;;;;;;;;;;;;;;;4990572;28;5117;-69
2022/11/03 01:27:25;;;;;;;;;;;;;;;;;;4992189;28;4576;-69
2022/11/03 01:29:51;;;;;;;;;;;;;;;;;;4988759;28;5166;-69
2022/11/03 01:32:17;;;;;;;;;;;;;;;;;;4973652;28;1261;-69
2022/11/03 01:35:02;;;;;;;;;;;;;;;;;;4983119;28;5034;-69
2022/11/03 01:37:27;;;;;;;;;;;;;;;;;;4992921;28;5079;-69
2022/11/03 01:39:52;;;;;;;;;;;;;;;;;;4973874;28;5350;-69
2022/11/03 01:42:17;;;;;;;;;;;;;;;;;;4956522;28;4987;-69
2022/11/03 01:44:45;;;;;;;;;;;;;;;;;;4968667;28;4867;-69
2022/11/03 01:47:20;;;;;;;;;;;;;;;;;;4993211;28;1992;-68
2022/11/03 01:49:59;;;;;;;;;;;;;;;;;;4986712;28;4824;-69
2022/11/03 01:52:26;;;;;;;;;;;;;;;;;;4990902;28;4919;-69
2022/11/03 01:54:54;;;;;;;;;;;;;;;;;;4986745;28;5089;-69
2022/11/03 01:57:27;;;;;;;;;;;;;;;;;;4992345;28;4484;-69
2022/11/03 02:00:01;;;;;;;;;;;;;;;;;;4974588;28;5090;-69
2022/11/03 02:02:26;;;;;;;;;;;;;;;;;;4977928;28;5426;-68
2022/11/03 02:04:51;;;;;;;;;;;;;;;;;;4990219;28;1696;-69
2022/11/03 02:07:24;;;;;;;;;;;;;;;;;;4970623;28;4812;-69
2022/11/03 02:09:49;;;;;;;;;;;;;;;;;;4979972;28;5111;-70
2022/11/03 02:12:14;;;;;;;;;;;;;;;;;;4979395;28;4696;-69
2022/11/03 02:14:59;;;;;;;;;;;;;;;;;;4988889;28;5087;-70
2022/11/03 02:17:24;;;;;;;;;;;;;;;;;;4997330;28;4593;-70
2022/11/03 02:19:56;;;;;;;;;;;;;;;;;;4981794;28;4476;-70
2022/11/03 02:22:28;;;;;;;;;;;;;;;;;;4967457;28;4456;-68
2022/11/03 02:25:02;;;;;;;;;;;;;;;;;;4972549;28;5051;-69
2022/11/03 02:27:27;;;;;;;;;;;;;;;;;;4975709;28;5059;-70
2022/11/03 02:29:53;;;;;;;;;;;;;;;;;;4991972;28;4464;-69
2022/11/03 02:32:26;;;;;;;;;;;;;;;;;;4986584;28;2026;-69
2022/11/03 02:34:59;;;;;;;;;;;;;;;;;;4975527;28;4425;-70
2022/11/03 02:37:28;;;;;;;;;;;;;;;;;;4991780;28;5009;-69
2022/11/03 02:40:04;;;;;;;;;;;;;;;;;;4990419;28;5017;-70
2022/11/03 02:42:30;;;;;;;;;;;;;;;;;;4988304;28;4817;-70
2022/11/03 02:44:56;;;;;;;;;;;;;;;;;;4970874;28;5254;-69
2022/11/03 02:47:21;;;;;;;;;;;;;;;;;;4978078;28;4586;-67
2022/11/03 02:49:50;;;;;;;;;;;;;;;;;;4955111;28;1202;-69
2022/11/03 02:52:48;;;;;;;;;;;;;;;;;;4969343;28;4934;-69
2022/11/03 02:55:32;;;;;;;;;;;;;;;;;;4948456;28;5075;-69
2022/11/03 02:57:57;;;;;;;;;;;;;;;;;;4994501;28;4979;-68
2022/11/03 03:00:22;;;;;;;;;;;;;;;;;;5000580;28;5055;-68
2022/11/03 03:02:56;;;;;;;;;;;;;;;;;;4988192;28;5090;-69
2022/11/03 03:05:22;;;;;;;;;;;;;;;;;;4952666;28;5124;-66
2022/11/03 03:07:51;;;;;;;;;;;;;;;;;;4993569;28;1986;-69
2022/11/03 03:10:17;;;;;;;;;;;;;;;;;;4987675;28;4963;-67
2022/11/03 03:12:44;;;;;;;;;;;;;;;;;;4986168;28;4469;-69
2022/11/03 03:15:09;;;;;;;;;;;;;;;;;;4972296;28;5322;-68
2022/11/03 03:17:43;;;;;;;;;;;;;;;;;;4973959;28;4791;-63
2022/11/03 03:20:27;;;;;;;;;;;;;;;;;;4983141;28;4865;-69
2022/11/03 03:22:59;;;;;;;;;;;;;;;;;;4954708;28;4518;-63
2022/11/03 03:25:26;;;;;;;;;;;;;;;;;;4970178;28;5079;-68
2022/11/03 03:28:08;;;;;;;;;;;;;;;;;;4953947;28;5337;-68
2022/11/03 03:30:33;;;;;;;;;;;;;;;;;;4973902;28;5445;-69
2022/11/03 03:32:58;;;;;;;;;;;;;;;;;;4953751;28;4508;-68
2022/11/03 03:35:24;;;;;;;;;;;;;;;;;;4979095;28;4703;-69
2022/11/03 03:37:50;;;;;;;;;;;;;;;;;;4990430;28;912;-69
2022/11/03 03:43:19;;;;;;;;;;;;;;;;;;4987260;28;4941;-67
2022/11/03 03:46:10;;;;;;;;;;;;;;;;;;4978640;28;5222;-69
2022/11/03 03:51:32;;;;;;;;;;;;;;;;;;4972263;28;4883;-68
2022/11/03 03:54:02;;;;;;;;;;;;;;;;;;4958160;28;5531;-69
2022/11/03 03:56:47;;;;;;;;;;;;;;;;;;4982569;28;4539;-67
2022/11/03 03:59:12;;;;;;;;;;;;;;;;;;4992392;28;2714;-68
2022/11/03 04:01:44;;;;;;;;;;;;;;;;;;4981064;28;4991;-68
2022/11/03 04:04:09;;;;;;;;;;;;;;;;;;4980933;28;4443;-63
2022/11/03 04:06:34;;;;;;;;;;;;;;;;;;4974585;28;4995;-60
2022/11/03 04:09:30;;;;;;;;;;;;;;;;;;4974622;28;5069;-69
2022/11/03 04:22:59;;;;;;;;;;;;;;;;;;4986114;28;4758;-72
2022/11/03 04:28:42;;;;;;;;;;;;;;;;;;5018305;28;5290;-71
2022/11/03 04:31:11;;;;;;;;;;;;;;;;;;4993681;28;5326;-68
2022/11/03 04:33:37;;;;;;;;;;;;;;;;;;4959980;28;4991;-71
2022/11/03 04:39:20;;;;;;;;;;;;;;;;;;4997685;28;5127;-71
2022/11/03 04:41:45;;;;;;;;;;;;;;;;;;4974099;28;5100;-69
2022/11/03 04:44:15;;;;;;;;;;;;;;;;;;4974876;28;3392;-71
2022/11/03 04:46:54;;;;;;;;;;;;;;;;;;4981282;28;4631;-70
2022/11/03 04:49:22;;;;;;;;;;;;;;;;;;4987684;28;4914;-68
2022/11/03 04:51:47;;;;;;;;;;;;;;;;;;4975988;28;4456;-69
2022/11/03 04:54:13;;;;;;;;;;;;;;;;;;4983572;28;5112;-70
2022/11/03 04:56:38;;;;;;;;;;;;;;;;;;4988996;28;4623;-67
2022/11/03 04:59:11;;;;;;;;;;;;;;;;;;4994345;28;2943;-70
2022/11/03 05:01:37;;;;;;;;;;;;;;;;;;4979276;28;4424;-68
2022/11/03 05:04:07;;;;;;;;;;;;;;;;;;4968614;28;4529;-70
2022/11/03 05:06:32;;;;;;;;;;;;;;;;;;4999612;28;4866;-70
2022/11/03 05:08:58;;;;;;;;;;;;;;;;;;4976250;28;5074;-69
2022/11/03 05:11:26;;;;;;;;;;;;;;;;;;4975643;28;4625;-69
2022/11/03 05:13:51;;;;;;;;;;;;;;;;;;4993532;28;919;-66
2022/11/03 05:16:17;;;;;;;;;;;;;;;;;;4982077;28;4876;-71
2022/11/03 05:18:43;;;;;;;;;;;;;;;;;;4960547;28;4847;-69
2022/11/03 05:21:09;;;;;;;;;;;;;;;;;;4978366;28;5127;-66
2022/11/03 05:23:38;;;;;;;;;;;;;;;;;;4973684;28;5111;-70
2022/11/03 05:26:04;;;;;;;;;;;;;;;;;;4974748;28;2895;-64
2022/11/03 05:28:32;;;;;;;;;;;;;;;;;;4984470;28;4625;-65
2022/11/03 05:30:58;;;;;;;;;;;;;;;;;;4985325;28;5499;-61
2022/11/03 05:33:29;;;;;;;;;;;;;;;;;;4982040;28;5158;-61
2022/11/03 05:35:56;;;;;;;;;;;;;;;;;;4972114;28;5071;-61
2022/11/03 05:38:21;;;;;;;;;;;;;;;;;;4988673;28;1615;-67
2022/11/03 05:40:50;;;;;;;;;;;;;;;;;;4988568;28;4372;-63
2022/11/03 05:43:15;;;;;;;;;;;;;;;;;;4988142;28;5065;-64
2022/11/03 05:45:41;;;;;;;;;;;;;;;;;;4972447;28;5114;-64
2022/11/03 05:48:16;;;;;;;;;;;;;;;;;;4977282;28;5086;-64
2022/11/03 05:51:24;;;;;;;;;;;;;;;;;;4989180;28;5148;-64
2022/11/03 05:57:14;;;;;;;;;;;;;;;;;;4973346;28;5395;-64
2022/11/03 05:59:39;;;;;;;;;;;;;;;;;;4955404;28;5023;-62
2022/11/03 06:02:07;;;;;;;;;;;;;;;;;;4971147;28;995;-63
2022/11/03 06:04:35;;;;;;;;;;;;;;;;;;4970568;28;4447;-65
2022/11/03 06:07:02;;;;;;;;;;;;;;;;;;4977000;28;5022;-63
2022/11/03 06:09:27;;;;;;;;;;;;;;;;;;4973226;28;4532;-69
2022/11/03 06:11:56;;;;;;;;;;;;;;;;;;4975958;28;5038;-69
2022/11/03 06:14:22;;;;;;;;;;;;;;;;;;4983486;28;2866;-68
2022/11/03 06:16:48;;;;;;;;;;;;;;;;;;4990573;28;4922;-68
2022/11/03 06:19:22;;;;;;;;;;;;;;;;;;4970467;28;4485;-67
2022/11/03 06:22:01;;;;;;;;;;;;;;;;;;4976048;28;4868;-69
2022/11/03 06:24:38;;;;;;;;;;;;;;;;;;4974982;28;4870;-69
2022/11/03 06:27:10;;;;;;;;;;;;;;;;;;4974041;28;5123;-69
2022/11/03 06:29:35;;;;;;;;;;;;;;;;;;4991098;28;5146;-69
2022/11/03 06:32:01;;;;;;;;;;;;;;;;;;4992060;28;3100;-75
2022/11/03 06:34:33;;;;;;;;;;;;;;;;;;4977468;28;4566;-74
2022/11/03 06:37:00;;;;;;;;;;;;;;;;;;4970943;28;4956;-74
2022/11/03 06:39:25;;;;;;;;;;;;;;;;;;4970774;28;4979;-73
2022/11/03 06:42:21;;;;;;;;;;;;;;;;;;4970522;28;4968;-76
2022/11/03 06:45:07;;;;;;;;;;;;;;;;;;4951143;28;4478;-68
2022/11/03 06:47:32;;;;;;;;;;;;;;;;;;4971981;28;5146;-72
2022/11/03 06:49:58;;;;;;;;;;;;;;;;;;4976143;28;992;-70
2022/11/03 06:52:30;;;;;;;;;;;;;;;;;;4991207;28;5234;-71
2022/11/03 06:55:08;;;;;;;;;;;;;;;;;;4991641;28;5390;-71
2022/11/03 06:57:37;;;;;;;;;;;;;;;;;;4991250;28;5024;-70
2022/11/03 07:00:16;;;;;;;;;;;;;;;;;;4996151;28;5120;-70
2022/11/03 07:03:01;;;;;;;;;;;;;;;;;;5009857;28;5323;-70
2022/11/03 07:05:29;;;;;;;;;;;;;;;;;;5011499;28;4956;-69
2022/11/03 07:08:02;;;;;;;;;;;;;;;;;;5009056;28;3118;-69
2022/11/03 07:10:32;;;;;;;;;;;;;;;;;;4989180;28;4934;-70
2022/11/03 07:12:58;;;;;;;;;;;;;;;;;;4995473;28;4622;-71
2022/11/03 07:15:29;;;;;;;;;;;;;;;;;;5009456;28;4963;-69
2022/11/03 07:17:54;;;;;;;;;;;;;;;;;;5009213;28;5125;-69
2022/11/03 07:20:19;;;;;;;;;;;;;;;;;;5010933;28;4650;-70
2022/11/03 07:22:44;;;;;;;;;;;;;;;;;;5010172;28;4943;-69
2022/11/03 07:25:19;;;;;;;;;;;;;;;;;;5010577;28;5005;-69
2022/11/03 07:27:53;;;;;;;;;;;;;;;;;;4995965;28;5077;-69
2022/11/03 07:30:25;;;;;;;;;;;;;;;;;;4997212;28;4637;-69
2022/11/03 07:32:54;;;;;;;;;;;;;;;;;;4996356;28;4442;-69
2022/11/03 07:35:23;;;;;;;;;;;;;;;;;;5015175;28;1034;-69
2022/11/03 07:37:49;;;;;;;;;;;;;;;;;;5013539;28;5024;-69
2022/11/03 07:40:15;;;;;;;;;;;;;;;;;;5012849;28;4530;-69
2022/11/03 07:42:40;;;;;;;;;;;;;;;;;;5013999;28;5021;-69
2022/11/03 07:45:24;;;;;;;;;;;;;;;;;;5013877;28;5007;-69
2022/11/03 07:47:49;;;;;;;;;;;;;;;;;;5014040;28;4538;-69
2022/11/03 07:50:17;;;;;;;;;;;;;;;;;;4996706;28;1149;-69
2022/11/03 07:52:44;;;;;;;;;;;;;;;;;;5012864;28;5085;-69
2022/11/03 07:55:09;;;;;;;;;;;;;;;;;;4996270;28;5050;-70
2022/11/03 07:57:35;;;;;;;;;;;;;;;;;;4996294;28;5261;-69
2022/11/03 08:00:03;;;;;;;;;;;;;;;;;;5002466;28;5201;-69
2022/11/03 08:02:40;;;;;;;;;;;;;;;;;;4994301;28;5074;-70
2022/11/03 08:05:06;;;;;;;;;;;;;;;;;;4975826;28;1555;-70
2022/11/03 08:07:31;;;;;;;;;;;;;;;;;;4973605;28;5060;-70
2022/11/03 08:09:57;;;;;;;;;;;;;;;;;;4974395;28;4919;-70
2022/11/03 08:12:22;;;;;;;;;;;;;;;;;;4984085;28;5010;-70
2022/11/03 08:17:50;;;;;;;;;;;;;;;;;;4992913;28;5092;-69
2022/11/03 08:20:15;;;;;;;;;;;;;;;;;;4994680;28;4634;-69
2022/11/03 08:22:40;;;;;;;;;;;;;;;;;;4993089;28;4929;-70
2022/11/03 08:25:06;;;;;;;;;;;;;;;;;;4994161;28;4480;-70
2022/11/03 08:27:31;;;;;;;;;;;;;;;;;;4993786;28;4972;-70
2022/11/03 08:33:00;;;;;;;;;;;;;;;;;;4992620;28;5011;-70
2022/11/03 08:35:31;;;;;;;;;;;;;;;;;;4974605;28;4584;-69
2022/11/03 08:38:06;;;;;;;;;;;;;;;;;;4976357;28;2576;-70
2022/11/03 08:40:31;;;;;;;;;;;;;;;;;;4975771;28;4878;-70
2022/11/03 08:42:56;;;;;;;;;;;;;;;;;;4993676;28;4961;-69
2022/11/03 08:45:22;;;;;;;;;;;;;;;;;;4993888;28;4967;-70
2022/11/03 08:47:47;;;;;;;;;;;;;;;;;;4993693;28;4900;-69
2022/11/03 08:50:12;;;;;;;;;;;;;;;;;;4976297;28;1102;-69
2022/11/03 08:52:37;;;;;;;;;;;;;;;;;;4993345;28;4975;-69
2022/11/03 08:55:03;;;;;;;;;;;;;;;;;;4993351;28;5145;-69
2022/11/03 08:57:28;;;;;;;;;;;;;;;;;;4976240;28;5123;-69
2022/11/03 08:59:54;;;;;;;;;;;;;;;;;;4994975;28;5017;-70
2022/11/03 09:02:20;;;;;;;;;;;;;;;;;;4993669;28;955;-69
2022/11/03 09:05:07;;;;;;;;;;;;;;;;;;4977683;28;4986;-69
2022/11/03 09:07:38;;;;;;;;;;;;;;;;;;4975455;28;5584;-70
2022/11/03 09:10:04;;;;;;;;;;;;;;;;;;4972271;28;4507;-70
2022/11/03 09:12:30;;;;;;;;;;;;;;;;;;4984136;28;5054;-70
2022/11/03 09:14:55;;;;;;;;;;;;;;;;;;4993308;28;4754;-69
2022/11/03 09:17:20;;;;;;;;;;;;;;;;;;4993336;28;1102;-70
2022/11/03 09:19:46;;;;;;;;;;;;;;;;;;4992261;28;5181;-70
2022/11/03 09:22:11;;;;;;;;;;;;;;;;;;4992871;28;5099;-70
2022/11/03 09:24:53;;;;;;;;;;;;;;;;;;4993349;28;4849;-70
2022/11/03 09:27:18;;;;;;;;;;;;;;;;;;4992836;28;4822;-70
2022/11/03 09:29:44;;;;;;;;;;;;;;;;;;4992754;28;5051;-69
2022/11/03 09:32:09;;;;;;;;;;;;;;;;;;4993358;28;1050;-69
2022/11/03 09:34:34;;;;;;;;;;;;;;;;;;4981797;28;4891;-69
2022/11/03 09:37:00;;;;;;;;;;;;;;;;;;4993158;28;5031;-69
2022/11/03 09:39:25;;;;;;;;;;;;;;;;;;4992332;28;4986;-69
2022/11/03 09:41:50;;;;;;;;;;;;;;;;;;4992827;28;5201;-69
2022/11/03 09:44:16;;;;;;;;;;;;;;;;;;4993492;28;1029;-69
2022/11/03 09:46:41;;;;;;;;;;;;;;;;;;4992045;28;4417;-70
2022/11/03 09:49:06;;;;;;;;;;;;;;;;;;4991829;28;5034;-69
2022/11/03 09:51:33;;;;;;;;;;;;;;;;;;4987861;28;4649;-69
2022/11/03 09:54:00;;;;;;;;;;;;;;;;;;4990622;28;5090;-70
2022/11/03 09:56:26;;;;;;;;;;;;;;;;;;4974643;28;4638;-69
2022/11/03 09:58:51;;;;;;;;;;;;;;;;;;4959422;28;1245;-69
2022/11/03 10:01:16;;;;;;;;;;;;;;;;;;4992133;28;4593;-70
2022/11/03 10:03:41;;;;;;;;;;;;;;;;;;4996585;28;5001;-69
2022/11/03 10:06:07;;;;;;;;;;;;;;;;;;4993913;28;5035;-69
2022/11/03 10:08:34;;;;;;;;;;;;;;;;;;5010965;28;4448;-69
2022/11/03 10:10:59;;;;;;;;;;;;;;;;;;5011382;28;1084;-69
2022/11/03 10:13:33;;;;;;;;;;;;;;;;;;4991523;28;5216;-70
2022/11/03 10:15:59;;;;;;;;;;;;;;;;;;4992329;28;4469;-69
2022/11/03 10:18:24;;;;;;;;;;;;;;;;;;5009480;28;5024;-69
2022/11/03 10:20:49;;;;;;;;;;;;;;;;;;4998758;28;5595;-69
2022/11/03 10:23:15;;;;;;;;;;;;;;;;;;4991731;28;1149;-69
2022/11/03 10:25:41;;;;;;;;;;;;;;;;;;4990166;28;4397;-69
2022/11/03 10:28:12;;;;;;;;;;;;;;;;;;4992856;28;4826;-70
2022/11/03 10:30:47;;;;;;;;;;;;;;;;;;5009202;28;4981;-69
2022/11/03 10:33:31;;;;;;;;;;;;;;;;;;4992298;28;5021;-69
2022/11/03 10:35:59;;;;;;;;;;;;;;;;;;4999491;28;4464;-69
2022/11/03 10:38:33;;;;;;;;;;;;;;;;;;4991248;28;5100;-69
2022/11/03 10:41:13;;;;;;;;;;;;;;;;;;4992224;28;978;-69
2022/11/03 10:43:39;;;;;;;;;;;;;;;;;;4991105;28;4928;-69
2022/11/03 10:46:11;;;;;;;;;;;;;;;;;;4990725;28;5161;-70
2022/11/03 10:48:37;;;;;;;;;;;;;;;;;;4990714;28;4685;-70
2022/11/03 10:51:02;;;;;;;;;;;;;;;;;;4991551;28;4991;-70
2022/11/03 10:53:33;;;;;;;;;;;;;;;;;;4979508;28;5249;-70
2022/11/03 10:55:58;;;;;;;;;;;;;;;;;;4991756;28;956;-70
2022/11/03 10:58:23;;;;;;;;;;;;;;;;;;4990769;28;4952;-69
2022/11/03 11:00:49;;;;;;;;;;;;;;;;;;5007252;28;4904;-69
2022/11/03 11:03:14;;;;;;;;;;;;;;;;;;4986799;28;5050;-69
2022/11/03 11:05:45;;;;;;;;;;;;;;;;;;4971014;28;4518;-70
2022/11/03 11:08:12;;;;;;;;;;;;;;;;;;4971258;28;1996;-69
2022/11/03 11:10:37;;;;;;;;;;;;;;;;;;4970337;28;4576;-69
2022/11/03 11:13:18;;;;;;;;;;;;;;;;;;4972643;28;5338;-69
2022/11/03 11:15:54;;;;;;;;;;;;;;;;;;4990892;28;4844;-69
2022/11/03 11:18:28;;;;;;;;;;;;;;;;;;4971344;28;5132;-69
2022/11/03 11:20:54;;;;;;;;;;;;;;;;;;4982621;28;4821;-69
2022/11/03 11:23:25;;;;;;;;;;;;;;;;;;4989287;28;1089;-69
2022/11/03 11:26:09;;;;;;;;;;;;;;;;;;4990646;28;4841;-69
2022/11/03 11:28:34;;;;;;;;;;;;;;;;;;4990030;28;5102;-70
2022/11/03 11:31:00;;;;;;;;;;;;;;;;;;4990397;28;4988;-70
2022/11/03 11:33:26;;;;;;;;;;;;;;;;;;4985258;28;5151;-69
2022/11/03 11:36:01;;;;;;;;;;;;;;;;;;4971520;28;5016;-69
2022/11/03 11:38:45;;;;;;;;;;;;;;;;;;4970798;28;5255;-69
2022/11/03 11:41:10;;;;;;;;;;;;;;;;;;4971317;28;1081;-69
2022/11/03 11:43:35;;;;;;;;;;;;;;;;;;4982938;28;4837;-69
2022/11/03 11:46:19;;;;;;;;;;;;;;;;;;4990374;28;4633;-69
2022/11/03 11:48:45;;;;;;;;;;;;;;;;;;4990415;28;4951;-69
2022/11/03 11:51:10;;;;;;;;;;;;;;;;;;4988700;28;5046;-70
2022/11/03 11:53:41;;;;;;;;;;;;;;;;;;4989978;28;4857;-69
2022/11/03 11:56:10;;;;;;;;;;;;;;;;;;4973579;28;836;-69
2022/11/03 11:58:48;;;;;;;;;;;;;;;;;;4972342;28;5102;-69
2022/11/03 12:01:34;;;;;;;;;;;;;;;;;;4972931;28;5034;-69
2022/11/03 12:04:00;;;;;;;;;;;;;;;;;;4981681;28;5126;-69
2022/11/03 12:06:32;;;;;;;;;;;;;;;;;;4969360;28;4437;-69
2022/11/03 12:09:12;;;;;;;;;;;;;;;;;;4969954;28;4625;-70
2022/11/03 12:11:41;;;;;;;;;;;;;;;;;;4973671;28;4968;-70
2022/11/03 12:14:19;;;;;;;;;;;;;;;;;;4993220;28;1085;-70
2022/11/03 12:16:44;;;;;;;;;;;;;;;;;;4975554;28;4829;-70
2022/11/03 12:19:28;;;;;;;;;;;;;;;;;;4993671;28;4835;-69
2022/11/03 12:21:54;;;;;;;;;;;;;;;;;;4993108;28;5106;-70
2022/11/03 12:24:31;;;;;;;;;;;;;;;;;;4993005;28;4493;-69
2022/11/03 12:26:56;;;;;;;;;;;;;;;;;;4975641;28;4924;-70
2022/11/03 12:29:21;;;;;;;;;;;;;;;;;;4993912;28;1135;-69
2022/11/03 12:31:47;;;;;;;;;;;;;;;;;;4992939;28;5710;-69
2022/11/03 12:34:12;;;;;;;;;;;;;;;;;;4967097;28;5052;-69
2022/11/03 12:36:37;;;;;;;;;;;;;;;;;;4973990;28;4615;-70
2022/11/03 12:39:02;;;;;;;;;;;;;;;;;;4979592;28;5049;-70
2022/11/03 12:41:28;;;;;;;;;;;;;;;;;;4992991;28;5103;-69
2022/11/03 12:43:54;;;;;;;;;;;;;;;;;;4993903;28;1006;-70
2022/11/03 12:46:26;;;;;;;;;;;;;;;;;;4993059;28;4429;-69
2022/11/03 12:48:51;;;;;;;;;;;;;;;;;;4975213;28;5091;-69
2022/11/03 12:51:17;;;;;;;;;;;;;;;;;;4993489;28;4961;-69
2022/11/03 12:53:42;;;;;;;;;;;;;;;;;;4992803;28;5245;-69
2022/11/03 12:56:07;;;;;;;;;;;;;;;;;;4993683;28;1119;-69
2022/11/03 12:58:33;;;;;;;;;;;;;;;;;;4992991;28;4965;-70
2022/11/03 13:00:58;;;;;;;;;;;;;;;;;;4995864;28;4453;-69
2022/11/03 13:03:23;;;;;;;;;;;;;;;;;;4989959;28;5075;-69
2022/11/03 13:05:49;;;;;;;;;;;;;;;;;;4973963;28;4485;-69
2022/11/03 13:08:14;;;;;;;;;;;;;;;;;;4974214;28;1910;-69
2022/11/03 13:10:40;;;;;;;;;;;;;;;;;;4973575;28;4950;-69
2022/11/03 13:13:05;;;;;;;;;;;;;;;;;;4988407;28;5084;-68
2022/11/03 13:15:32;;;;;;;;;;;;;;;;;;4993164;28;4824;-69
2022/11/03 13:17:57;;;;;;;;;;;;;;;;;;4993535;28;5033;-69
2022/11/03 13:20:23;;;;;;;;;;;;;;;;;;4974760;28;4910;-68
2022/11/03 13:22:48;;;;;;;;;;;;;;;;;;4993112;28;1014;-69
2022/11/03 13:25:14;;;;;;;;;;;;;;;;;;4991498;28;5036;-69
2022/11/03 13:27:39;;;;;;;;;;;;;;;;;;4992767;28;5114;-70
2022/11/03 13:30:05;;;;;;;;;;;;;;;;;;4992559;28;5100;-69
2022/11/03 13:32:30;;;;;;;;;;;;;;;;;;4992792;28;5050;-68
2022/11/03 13:34:55;;;;;;;;;;;;;;;;;;4980188;28;1741;-69
2022/11/03 13:37:21;;;;;;;;;;;;;;;;;;4992375;28;5153;-69
2022/11/03 13:39:46;;;;;;;;;;;;;;;;;;4992245;28;4997;-70
2022/11/03 13:42:11;;;;;;;;;;;;;;;;;;4992302;28;4848;-69
2022/11/03 13:44:37;;;;;;;;;;;;;;;;;;4992708;28;5126;-69
2022/11/03 13:47:03;;;;;;;;;;;;;;;;;;4992177;28;1981;-69
2022/11/03 13:49:28;;;;;;;;;;;;;;;;;;4992336;28;4821;-69
2022/11/03 13:52:00;;;;;;;;;;;;;;;;;;4992438;28;4827;-69
2022/11/03 13:54:25;;;;;;;;;;;;;;;;;;4974637;28;5082;-69
2022/11/03 13:57:01;;;;;;;;;;;;;;;;;;4991841;28;4877;-69
2022/11/03 13:59:26;;;;;;;;;;;;;;;;;;4995364;28;4886;-69
2022/11/03 14:01:51;;;;;;;;;;;;;;;;;;4975328;28;899;-69
2022/11/03 14:04:42;;;;;;;;;;;;;;;;;;4988659;28;5058;-69
2022/11/03 14:07:07;;;;;;;;;;;;;;;;;;4991639;28;4500;-70
2022/11/03 14:09:33;;;;;;;;;;;;;;;;;;4992696;28;5631;-69
2022/11/03 14:14:41;;;;;;;;;;;;;;;;;;4991117;28;4941;-69
2022/11/03 14:17:08;;;;;;;;;;;;;;;;;;4992220;28;1795;-69
2022/11/03 14:19:34;;;;;;;;;;;;;;;;;;4991065;28;4872;-69
2022/11/03 14:21:59;;;;;;;;;;;;;;;;;;4991513;28;5279;-69
2022/11/03 14:24:24;;;;;;;;;;;;;;;;;;4992131;28;4989;-70
2022/11/03 14:26:50;;;;;;;;;;;;;;;;;;4992860;28;5027;-70
2022/11/03 14:29:22;;;;;;;;;;;;;;;;;;4992423;28;1118;-68
2022/11/03 14:31:47;;;;;;;;;;;;;;;;;;4992430;28;4685;-69
2022/11/03 14:34:12;;;;;;;;;;;;;;;;;;4982405;28;5178;-69
2022/11/03 14:36:37;;;;;;;;;;;;;;;;;;4971914;28;5023;-69
2022/11/03 14:39:03;;;;;;;;;;;;;;;;;;4971866;28;4965;-69
2022/11/03 14:44:12;;;;;;;;;;;;;;;;;;4972814;28;1336;-69
2022/11/03 14:47:00;;;;;;;;;;;;;;;;;;4972600;28;5649;-69
2022/11/03 14:49:25;;;;;;;;;;;;;;;;;;4972857;28;5050;-69
2022/11/03 14:54:52;;;;;;;;;;;;;;;;;;4971511;28;4498;-68
2022/11/03 14:57:17;;;;;;;;;;;;;;;;;;4970732;28;4900;-70
2022/11/03 14:59:42;;;;;;;;;;;;;;;;;;4976379;28;4852;-69
2022/11/03 15:02:08;;;;;;;;;;;;;;;;;;4991913;28;1055;-70
2022/11/03 15:04:33;;;;;;;;;;;;;;;;;;4983620;28;4457;-69
2022/11/03 15:07:27;;;;;;;;;;;;;;;;;;4991841;28;4958;-69
2022/11/03 15:09:52;;;;;;;;;;;;;;;;;;4991866;28;5212;-69
2022/11/03 15:12:46;;;;;;;;;;;;;;;;;;4998224;28;5054;-69
2022/11/03 15:15:12;;;;;;;;;;;;;;;;;;5010804;28;5336;-69
2022/11/03 15:17:43;;;;;;;;;;;;;;;;;;5010541;28;5030;-69
2022/11/03 15:20:25;;;;;;;;;;;;;;;;;;4990763;28;4813;-68
2022/11/03 15:22:50;;;;;;;;;;;;;;;;;;5000639;28;4672;-69
2022/11/03 15:25:39;;;;;;;;;;;;;;;;;;5010848;28;5119;-69
2022/11/03 15:31:08;;;;;;;;;;;;;;;;;;5010516;28;5200;-69
2022/11/03 15:33:33;;;;;;;;;;;;;;;;;;5007097;28;4920;-69
2022/11/03 15:36:33;;;;;;;;;;;;;;;;;;4992399;28;4435;-69
2022/11/03 15:38:58;;;;;;;;;;;;;;;;;;4991177;28;5020;-69
2022/11/03 15:41:23;;;;;;;;;;;;;;;;;;4990655;28;5037;-67
2022/11/03 15:43:49;;;;;;;;;;;;;;;;;;4991756;28;1039;-69
2022/11/03 15:46:15;;;;;;;;;;;;;;;;;;4991050;28;5019;-69
2022/11/03 15:49:04;;;;;;;;;;;;;;;;;;4993628;28;5070;-69
2022/11/03 15:51:31;;;;;;;;;;;;;;;;;;4996614;28;5777;-69
2022/11/03 15:53:56;;;;;;;;;;;;;;;;;;5013078;28;4895;-69
2022/11/03 15:56:21;;;;;;;;;;;;;;;;;;5013918;28;1065;-69
2022/11/03 15:58:47;;;;;;;;;;;;;;;;;;4996642;28;4891;-69
2022/11/03 16:01:12;;;;;;;;;;;;;;;;;;5001506;28;5007;-69
2022/11/03 16:03:39;;;;;;;;;;;;;;;;;;4993132;28;5216;-68
2022/11/03 16:06:05;;;;;;;;;;;;;;;;;;4972656;28;5158;-69
2022/11/03 16:08:30;;;;;;;;;;;;;;;;;;4974961;28;5281;-69
2022/11/03 16:11:11;;;;;;;;;;;;;;;;;;4978060;28;2505;-68
2022/11/03 16:13:36;;;;;;;;;;;;;;;;;;4987211;28;5029;-69
2022/11/03 16:16:01;;;;;;;;;;;;;;;;;;4993830;28;4847;-69
2022/11/03 16:18:27;;;;;;;;;;;;;;;;;;4994529;28;4747;-70
2022/11/03 16:21:06;;;;;;;;;;;;;;;;;;4993907;28;5130;-69
2022/11/03 16:23:31;;;;;;;;;;;;;;;;;;4993909;28;5037;-69
2022/11/03 16:25:56;;;;;;;;;;;;;;;;;;4996212;28;908;-69
2022/11/03 16:28:22;;;;;;;;;;;;;;;;;;4993354;28;4456;-69
2022/11/03 16:30:47;;;;;;;;;;;;;;;;;;4976121;28;5044;-69
2022/11/03 16:33:15;;;;;;;;;;;;;;;;;;4976634;28;5042;-69
2022/11/03 16:35:48;;;;;;;;;;;;;;;;;;4976306;28;5286;-69
2022/11/03 16:38:21;;;;;;;;;;;;;;;;;;4974908;28;1136;-71
2022/11/03 16:41:01;;;;;;;;;;;;;;;;;;4978899;28;5230;-72
2022/11/03 16:43:26;;;;;;;;;;;;;;;;;;4975828;28;4949;-69
2022/11/03 16:46:03;;;;;;;;;;;;;;;;;;4997883;28;4775;-65
2022/11/03 16:48:28;;;;;;;;;;;;;;;;;;4982011;28;4528;-67
2022/11/03 16:50:54;;;;;;;;;;;;;;;;;;4987907;28;5101;-63
2022/11/03 16:53:19;;;;;;;;;;;;;;;;;;4979776;28;999;-66
2022/11/03 17:01:56;;;;;;;;;;;;;;;;;;5014477;28;4564;-64
2022/11/03 17:04:22;;;;;;;;;;;;;;;;;;4992417;28;5020;-63
2022/11/03 17:10:01;;;;;;;;;;;;;;;;;;4976300;28;4405;-62
2022/11/03 17:18:31;;;;;;;;;;;;;;;;;;4977418;28;4962;-61
2022/11/03 17:30:03;;;;;;;;;;;;;;;;;;4975368;28;4903;-61
2022/11/03 17:35:37;;;;;;;;;;;;;;;;;;4976936;28;4969;-61
2022/11/03 17:47:10;;;;;;;;;;;;;;;;;;4996783;28;4618;-62
2022/11/03 17:49:35;;;;;;;;;;;;;;;;;;4992112;28;4811;-61
2022/11/03 17:55:16;;;;;;;;;;;;;;;;;;4996600;28;5165;-62
2022/11/03 18:00:50;;;;;;;;;;;;;;;;;;4999898;28;4884;-62
2022/11/03 18:06:19;;;;;;;;;;;;;;;;;;4996008;28;5034;-62
2022/11/03 18:08:45;;;;;;;;;;;;;;;;;;4978686;28;4516;-62
2022/11/03 18:13:15;;;;;;;;;;;;;;;;;;5015181;28;1089;-62
2022/11/03 18:17:24;;;;;;;;;;;;;;;;;;5014538;28;4569;-61
2022/11/03 18:20:02;;;;;;;;;;;;;;;;;;4976584;28;4676;-61
2022/11/03 18:22:28;;;;;;;;;;;;;;;;;;4978877;28;4883;-63
2022/11/03 18:24:53;;;;;;;;;;;;;;;;;;5001996;28;5065;-72
2022/11/03 18:27:31;;;;;;;;;;;;;;;;;;4972002;28;4921;-67
2022/11/03 18:29:56;;;;;;;;;;;;;;;;;;4985334;28;5113;-69
2022/11/03 18:32:32;;;;;;;;;;;;;;;;;;4989004;28;2089;-64
2022/11/03 18:34:57;;;;;;;;;;;;;;;;;;4988967;28;6169;-71
2022/11/03 18:37:22;;;;;;;;;;;;;;;;;;4997607;28;5072;-69
2022/11/03 18:39:48;;;;;;;;;;;;;;;;;;4990978;28;4843;-68
2022/11/03 18:42:13;;;;;;;;;;;;;;;;;;4973293;28;5106;-68
2022/11/03 18:44:40;;;;;;;;;;;;;;;;;;4986179;28;4686;-70
2022/11/03 18:47:05;;;;;;;;;;;;;;;;;;4957712;28;1926;-69
2022/11/03 18:49:38;;;;;;;;;;;;;;;;;;4981026;28;4829;-66
2022/11/03 18:52:06;;;;;;;;;;;;;;;;;;4981207;28;5063;-71
2022/11/03 18:54:32;;;;;;;;;;;;;;;;;;4978301;28;5000;-69
2022/11/03 19:00:19;;;;;;;;;;;;;;;;;;5005635;28;5627;-73